createdAt,value
2022-12-23T00:00:18.984Z,11.19
2022-12-23T00:02:24.644Z,11.18
2022-12-23T00:04:32.938Z,11.16
2022-12-23T00:06:38.735Z,11.15
2022-12-23T00:08:45.073Z,11.15
2022-12-23T00:10:53.304Z,11.16
2022-12-23T00:13:11.525Z,11.14
2022-12-23T00:15:17.491Z,11.13
2022-12-23T00:17:23.400Z,11.09
2022-12-23T00:19:32.133Z,11.08
2022-12-23T00:21:37.643Z,11.09
2022-12-23T00:23:46.952Z,11.07
2022-12-23T00:25:52.624Z,11.03
2022-12-23T00:28:04.037Z,10.99
2022-12-23T00:30:12.949Z,10.95
2022-12-23T00:32:18.339Z,10.93
2022-12-23T00:34:23.802Z,10.91
2022-12-23T00:36:33.455Z,10.89
2022-12-23T00:38:51.423Z,10.88
2022-12-23T00:41:09.264Z,10.83
2022-12-23T00:43:14.598Z,10.80
2022-12-23T00:45:20.410Z,10.74
2022-12-23T00:47:38.201Z,10.71
2022-12-23T00:49:46.578Z,10.68
2022-12-23T00:51:54.925Z,10.65
2022-12-23T00:54:00.478Z,10.62
2022-12-23T00:56:05.968Z,10.59
2022-12-23T00:58:11.302Z,10.57
2022-12-23T01:00:17.694Z,10.55
2022-12-23T01:02:35.841Z,10.56
2022-12-23T01:04:53.799Z,10.54
2022-12-23T01:07:01.855Z,10.51
2022-12-23T01:09:07.508Z,10.50
2022-12-23T01:11:14.702Z,10.48
2022-12-23T01:13:20.116Z,10.45
2022-12-23T01:15:25.909Z,10.44
2022-12-23T01:17:31.486Z,10.41
2022-12-23T01:19:37.057Z,10.40
2022-12-23T01:21:42.800Z,10.38
2022-12-23T01:23:51.038Z,10.37
2022-12-23T01:26:00.460Z,10.36
2022-12-23T01:28:06.171Z,10.36
2022-12-23T01:30:13.543Z,10.34
2022-12-23T01:32:19.275Z,10.34
2022-12-23T01:34:24.915Z,10.34
2022-12-23T01:36:30.399Z,10.35
2022-12-23T01:38:36.471Z,10.37
2022-12-23T01:40:48.114Z,10.37
2022-12-23T01:42:51.087Z,10.38
2022-12-23T01:45:00.813Z,10.39
2022-12-23T01:47:08.001Z,10.36
2022-12-23T01:49:13.675Z,10.37
2022-12-23T01:51:26.483Z,10.35
2022-12-23T01:53:36.113Z,10.33
2022-12-23T01:55:49.040Z,10.33
2022-12-23T01:58:01.954Z,10.34
2022-12-23T02:00:22.342Z,10.33
2022-12-23T02:02:45.078Z,10.33
2022-12-23T02:04:51.259Z,10.33
2022-12-23T02:07:09.017Z,10.33
2022-12-23T02:09:20.000Z,10.31
2022-12-23T02:12:08.018Z,10.28
2022-12-23T02:14:47.143Z,10.24
2022-12-23T02:17:05.680Z,10.23
2022-12-23T02:19:20.587Z,10.25
2022-12-23T02:21:49.358Z,10.23
2022-12-23T02:24:39.784Z,10.22
2022-12-23T02:27:19.678Z,10.19
2022-12-23T02:30:25.191Z,10.19
2022-12-23T02:32:46.514Z,10.17
2022-12-23T02:34:59.458Z,10.13
2022-12-23T02:37:13.524Z,10.12
2022-12-23T02:39:29.478Z,10.16
2022-12-23T02:41:46.316Z,10.18
2022-12-23T02:44:03.795Z,10.17
2022-12-23T02:46:17.778Z,10.16
2022-12-23T02:48:37.201Z,10.17
2022-12-23T02:50:49.121Z,10.20
2022-12-23T02:52:57.077Z,10.21
2022-12-23T02:55:08.685Z,10.22
2022-12-23T02:57:18.308Z,10.23
2022-12-23T02:59:30.646Z,10.24
2022-12-23T03:01:39.400Z,10.24
2022-12-23T03:03:50.695Z,10.23
2022-12-23T03:05:58.721Z,10.25
2022-12-23T03:08:12.114Z,10.27
2022-12-23T03:10:31.355Z,10.23
2022-12-23T03:12:53.417Z,10.24
2022-12-23T03:15:21.186Z,10.26
2022-12-23T03:17:38.526Z,10.26
2022-12-23T03:19:55.647Z,10.27
2022-12-23T03:22:10.177Z,10.28
2022-12-23T03:24:31.416Z,10.30
2022-12-23T03:26:48.557Z,10.31
2022-12-23T03:29:02.001Z,10.31
2022-12-23T03:31:14.226Z,10.32
2022-12-23T03:33:25.199Z,10.35
2022-12-23T03:35:39.792Z,10.36
2022-12-23T03:37:51.223Z,10.37
2022-12-23T03:40:03.750Z,10.39
2022-12-23T03:42:16.533Z,10.38
2022-12-23T03:44:28.131Z,10.39
2022-12-23T03:46:40.833Z,10.40
2022-12-23T03:48:51.529Z,10.40
2022-12-23T03:51:04.034Z,10.41
2022-12-23T03:53:15.399Z,10.41
2022-12-23T03:55:28.402Z,10.41
2022-12-23T03:57:43.751Z,10.42
2022-12-23T03:59:53.567Z,10.43
2022-12-23T04:02:11.586Z,10.44
2022-12-23T04:04:28.155Z,10.44
2022-12-23T04:06:43.304Z,10.46
2022-12-23T04:08:51.797Z,10.50
2022-12-23T04:10:57.560Z,10.49
2022-12-23T04:13:03.504Z,10.50
2022-12-23T04:15:13.146Z,10.52
2022-12-23T04:17:20.397Z,10.54
2022-12-23T04:19:25.929Z,10.55
2022-12-23T04:21:31.395Z,10.60
2022-12-23T04:23:40.416Z,10.62
2022-12-23T04:25:45.737Z,10.64
2022-12-23T04:27:51.089Z,10.67
2022-12-23T04:29:56.665Z,10.71
2022-12-23T04:32:02.359Z,10.75
2022-12-23T04:34:08.089Z,10.79
2022-12-23T04:36:14.397Z,10.84
2022-12-23T04:38:20.019Z,10.89
2022-12-23T04:40:28.194Z,10.93
2022-12-23T04:42:33.543Z,10.98
2022-12-23T04:44:38.954Z,11.03
2022-12-23T04:46:44.549Z,11.05
2022-12-23T04:48:50.124Z,11.12
2022-12-23T04:50:55.435Z,11.10
2022-12-23T04:53:00.970Z,11.17
2022-12-23T04:55:06.362Z,11.24
2022-12-23T04:57:14.624Z,11.27
2022-12-23T04:59:19.949Z,11.31
2022-12-23T05:01:25.387Z,11.35
2022-12-23T05:03:30.907Z,11.37
2022-12-23T05:05:36.494Z,11.40
2022-12-23T05:07:41.829Z,11.40
2022-12-23T05:09:47.189Z,11.47
2022-12-23T05:11:52.774Z,11.49
2022-12-23T05:14:01.365Z,11.51
2022-12-23T05:16:07.338Z,11.56
2022-12-23T05:18:12.658Z,11.58
2022-12-23T05:20:18.247Z,11.61
2022-12-23T05:22:23.678Z,11.62
2022-12-23T05:24:29.067Z,11.62
2022-12-23T05:26:34.700Z,11.66
2022-12-23T05:28:40.040Z,11.66
2022-12-23T05:30:48.191Z,11.67
2022-12-23T05:32:56.631Z,11.65
2022-12-23T05:35:02.232Z,11.71
2022-12-23T05:37:07.546Z,11.73
2022-12-23T05:39:13.345Z,11.73
2022-12-23T05:41:19.829Z,11.74
2022-12-23T05:43:26.020Z,11.75
2022-12-23T05:45:31.304Z,11.77
2022-12-23T05:47:40.100Z,11.75
2022-12-23T05:49:45.498Z,11.78
2022-12-23T05:51:51.143Z,11.80
2022-12-23T05:53:56.483Z,11.82
2022-12-23T05:56:02.069Z,11.82
2022-12-23T05:58:07.591Z,11.82
2022-12-23T06:00:14.518Z,11.82
2022-12-23T06:02:22.341Z,11.84
2022-12-23T06:04:30.652Z,11.83
2022-12-23T06:06:36.039Z,11.84
2022-12-23T06:08:41.433Z,11.87
2022-12-23T06:10:47.136Z,11.89
2022-12-23T06:12:52.642Z,11.87
2022-12-23T06:14:58.045Z,11.92
2022-12-23T06:17:03.455Z,11.89
2022-12-23T06:19:08.870Z,11.92
2022-12-23T06:21:16.807Z,11.91
2022-12-23T06:23:22.114Z,11.92
2022-12-23T06:25:27.782Z,11.93
2022-12-23T06:27:33.173Z,11.93
2022-12-23T06:29:38.945Z,11.93
2022-12-23T06:31:44.318Z,11.93
2022-12-23T06:33:49.695Z,11.96
2022-12-23T06:35:54.982Z,11.96
2022-12-23T06:38:05.478Z,11.96
2022-12-23T06:40:16.036Z,11.96
2022-12-23T06:42:21.394Z,11.97
2022-12-23T06:44:26.780Z,11.97
2022-12-23T06:46:32.258Z,11.97
2022-12-23T06:48:37.569Z,11.98
2022-12-23T06:50:42.943Z,11.98
2022-12-23T06:52:49.178Z,11.99
2022-12-23T06:54:57.159Z,12.00
2022-12-23T06:57:02.626Z,12.02
2022-12-23T06:59:08.263Z,12.03
2022-12-23T07:01:13.831Z,12.01
2022-12-23T07:03:19.429Z,12.05
2022-12-23T07:05:25.248Z,12.06
2022-12-23T07:07:32.384Z,12.07
2022-12-23T07:09:37.741Z,12.06
2022-12-23T07:11:45.710Z,12.08
2022-12-23T07:13:51.461Z,12.09
2022-12-23T07:15:57.312Z,12.09
2022-12-23T07:18:02.925Z,12.08
2022-12-23T07:20:14.651Z,12.07
2022-12-23T07:22:20.429Z,12.08
2022-12-23T07:24:26.775Z,12.06
2022-12-23T07:26:32.473Z,12.04
2022-12-23T07:28:47.674Z,12.04
2022-12-23T07:30:53.446Z,12.03
2022-12-23T07:32:59.002Z,12.04
2022-12-23T07:35:04.633Z,12.04
2022-12-23T07:37:10.213Z,12.04
2022-12-23T07:39:15.742Z,12.04
2022-12-23T07:41:21.599Z,12.03
2022-12-23T07:43:27.023Z,12.03
2022-12-23T07:45:35.639Z,12.03
2022-12-23T07:47:41.052Z,12.04
2022-12-23T07:49:46.408Z,12.03
2022-12-23T07:51:51.708Z,12.04
2022-12-23T07:53:57.193Z,12.02
2022-12-23T07:56:02.789Z,12.06
2022-12-23T07:58:08.535Z,12.09
2022-12-23T08:00:15.924Z,12.10
2022-12-23T08:02:25.381Z,12.13
2022-12-23T08:04:31.108Z,12.16
2022-12-23T08:06:38.928Z,12.17
2022-12-23T08:08:47.218Z,12.18
2022-12-23T08:10:52.741Z,12.22
2022-12-23T08:12:58.279Z,12.27
2022-12-23T08:15:03.705Z,12.28
2022-12-23T08:17:09.635Z,12.32
2022-12-23T08:19:17.638Z,12.35
2022-12-23T08:21:23.573Z,12.40
2022-12-23T08:23:31.258Z,12.44
2022-12-23T08:25:36.541Z,12.48
2022-12-23T08:27:41.841Z,12.51
2022-12-23T08:29:47.523Z,12.55
2022-12-23T08:31:54.356Z,12.58
2022-12-23T08:34:01.815Z,12.61
2022-12-23T08:36:16.252Z,12.62
2022-12-23T08:38:26.386Z,12.63
2022-12-23T08:40:31.944Z,12.64
2022-12-23T08:42:37.206Z,12.66
2022-12-23T08:44:42.661Z,12.68
2022-12-23T08:46:48.650Z,12.69
2022-12-23T08:48:54.450Z,12.72
2022-12-23T08:50:59.784Z,12.73
2022-12-23T08:53:08.225Z,12.75
2022-12-23T08:55:13.489Z,12.78
2022-12-23T08:57:19.268Z,12.79
2022-12-23T08:59:26.332Z,12.82
2022-12-23T09:01:36.110Z,12.85
2022-12-23T09:03:43.479Z,12.87
2022-12-23T09:05:48.881Z,12.88
2022-12-23T09:07:54.199Z,12.89
2022-12-23T09:10:02.241Z,12.92
2022-12-23T09:12:08.043Z,12.92
2022-12-23T09:14:14.486Z,12.95
2022-12-23T09:16:21.348Z,12.96
2022-12-23T09:18:26.690Z,12.98
2022-12-23T09:20:31.959Z,13.01
2022-12-23T09:22:37.933Z,13.02
2022-12-23T09:24:43.239Z,13.03
2022-12-23T09:26:51.276Z,13.04
2022-12-23T09:28:58.271Z,13.07
2022-12-23T09:31:11.490Z,13.08
2022-12-23T09:33:19.903Z,13.08
2022-12-23T09:35:25.647Z,13.13
2022-12-23T09:37:31.337Z,13.14
2022-12-23T09:39:37.070Z,13.17
2022-12-23T09:42:02.088Z,13.17
2022-12-23T09:44:36.532Z,13.18
2022-12-23T09:46:54.339Z,13.18
2022-12-23T09:49:08.095Z,13.20
2022-12-23T09:51:15.853Z,13.20
2022-12-23T09:53:25.467Z,13.23
2022-12-23T09:55:43.277Z,13.22
2022-12-23T09:58:01.499Z,13.22
2022-12-23T10:00:15.982Z,13.24
2022-12-23T10:02:36.324Z,13.24
2022-12-23T10:04:55.612Z,13.25
2022-12-23T10:07:25.515Z,13.28
2022-12-23T10:09:33.075Z,13.32
2022-12-23T10:11:45.262Z,13.32
2022-12-23T10:13:58.141Z,13.31
2022-12-23T10:16:10.015Z,13.32
2022-12-23T10:18:25.615Z,13.33
2022-12-23T10:20:42.893Z,13.33
2022-12-23T10:22:50.215Z,13.34
2022-12-23T10:25:00.599Z,13.36
2022-12-23T10:27:21.171Z,13.36
2022-12-23T10:29:34.172Z,13.36
2022-12-23T10:31:51.995Z,13.36
2022-12-23T10:34:13.348Z,13.40
2022-12-23T10:36:29.321Z,13.43
2022-12-23T10:38:55.795Z,13.45
2022-12-23T10:41:11.986Z,13.47
2022-12-23T10:43:29.785Z,13.50
2022-12-23T10:45:54.501Z,13.50
2022-12-23T10:48:18.085Z,13.54
2022-12-23T10:50:52.377Z,13.56
2022-12-23T10:53:04.210Z,13.59
2022-12-23T10:55:24.311Z,13.62
2022-12-23T10:57:33.382Z,13.64
2022-12-23T10:59:39.933Z,13.66
2022-12-23T11:01:56.790Z,13.69
2022-12-23T11:04:10.597Z,13.71
2022-12-23T11:06:16.963Z,13.72
2022-12-23T11:08:23.947Z,13.71
2022-12-23T11:10:34.322Z,13.76
2022-12-23T11:12:45.299Z,13.79
2022-12-23T11:14:57.970Z,13.81
2022-12-23T11:17:07.843Z,13.81
2022-12-23T11:19:18.955Z,13.83
2022-12-23T11:21:24.417Z,13.86
2022-12-23T11:23:35.290Z,13.87
2022-12-23T11:25:43.923Z,13.86
2022-12-23T11:27:50.081Z,13.88
2022-12-23T11:29:57.945Z,13.90
2022-12-23T11:32:18.931Z,13.89
2022-12-23T11:34:28.174Z,13.89
2022-12-23T11:36:35.408Z,13.90
2022-12-23T11:38:53.972Z,13.89
2022-12-23T11:40:59.802Z,13.89
2022-12-23T11:43:09.588Z,13.87
2022-12-23T11:45:26.887Z,13.83
2022-12-23T11:47:42.013Z,13.81
2022-12-23T11:49:53.196Z,13.75
2022-12-23T11:52:16.677Z,13.76
2022-12-23T11:54:23.472Z,13.71
2022-12-23T11:56:30.031Z,13.72
2022-12-23T11:58:48.457Z,13.72
2022-12-23T12:00:58.381Z,13.70
2022-12-23T12:03:09.710Z,13.68
2022-12-23T12:05:28.509Z,13.69
2022-12-23T12:07:35.864Z,13.66
2022-12-23T12:09:46.018Z,13.66
2022-12-23T12:11:55.479Z,13.69
2022-12-23T12:14:04.657Z,13.70
2022-12-23T12:16:33.541Z,13.70
2022-12-23T12:18:45.581Z,13.70
2022-12-23T12:20:58.392Z,13.71
2022-12-23T12:23:11.873Z,13.72
2022-12-23T12:25:25.477Z,13.75
2022-12-23T12:27:40.753Z,13.76
2022-12-23T12:29:52.953Z,13.77
2022-12-23T12:32:02.640Z,13.77
2022-12-23T12:34:31.320Z,13.78
2022-12-23T12:36:49.298Z,13.77
2022-12-23T12:38:59.625Z,13.78
2022-12-23T12:41:18.703Z,13.71
2022-12-23T12:43:32.645Z,13.73
2022-12-23T12:58:29.505Z,13.61
2022-12-23T13:00:52.188Z,13.64
2022-12-23T13:03:33.581Z,13.64
2022-12-23T13:05:56.467Z,13.65
2022-12-23T13:08:25.394Z,13.66
2022-12-23T13:10:45.578Z,13.66
2022-12-23T13:13:06.695Z,13.68
2022-12-23T13:15:26.368Z,13.71
2022-12-23T13:17:40.664Z,13.68
2022-12-23T13:19:54.404Z,13.73
2022-12-23T13:22:10.588Z,13.73
2022-12-23T13:24:26.185Z,13.73
2022-12-23T13:26:40.474Z,13.72
2022-12-23T13:28:58.821Z,13.72
2022-12-23T13:31:21.280Z,13.71
2022-12-23T13:33:38.734Z,13.71
2022-12-23T13:36:06.775Z,13.71
2022-12-23T13:38:39.534Z,13.70
2022-12-23T13:41:01.201Z,13.70
2022-12-23T13:43:16.335Z,13.67
2022-12-23T13:45:24.366Z,13.67
2022-12-23T13:47:46.702Z,13.67
2022-12-23T13:50:04.005Z,13.65
2022-12-23T13:52:17.319Z,13.65
2022-12-23T13:54:40.358Z,13.63
2022-12-23T13:56:55.896Z,13.61
2022-12-23T13:59:02.392Z,13.61
2022-12-23T14:01:36.616Z,13.61
2022-12-23T14:03:45.209Z,13.58
2022-12-23T14:05:52.739Z,13.60
2022-12-23T14:07:58.813Z,13.60
2022-12-23T14:10:27.527Z,13.58
2022-12-23T14:12:41.240Z,13.59
2022-12-23T14:15:04.799Z,13.60
2022-12-23T14:17:24.174Z,13.56
2022-12-23T14:20:00.650Z,13.55
2022-12-23T14:22:32.514Z,13.53
2022-12-23T14:25:36.409Z,13.48
2022-12-23T14:28:02.893Z,13.44
2022-12-23T14:30:18.280Z,13.44
2022-12-23T14:32:29.859Z,13.45
2022-12-23T14:34:37.139Z,13.46
2022-12-23T14:37:35.302Z,13.40
2022-12-23T14:39:40.722Z,13.38
2022-12-23T14:41:57.533Z,13.37
2022-12-23T14:44:06.035Z,13.37
2022-12-23T14:47:00.092Z,13.35
2022-12-23T14:49:39.689Z,13.36
2022-12-23T14:51:50.948Z,13.32
2022-12-23T14:54:18.757Z,13.34
2022-12-23T14:56:39.117Z,13.33
2022-12-23T14:59:15.547Z,13.32
2022-12-23T15:01:29.051Z,13.29
2022-12-23T15:03:43.380Z,13.28
2022-12-23T15:05:51.154Z,13.30
2022-12-23T15:07:59.621Z,13.30
2022-12-23T15:10:09.377Z,13.30
2022-12-23T15:12:21.580Z,13.31
2022-12-23T15:14:37.453Z,13.27
2022-12-23T15:16:46.545Z,13.26
2022-12-23T15:18:59.814Z,13.25
2022-12-23T15:21:13.628Z,13.24
2022-12-23T15:23:21.823Z,13.24
2022-12-23T15:25:31.966Z,13.24
2022-12-23T15:27:39.881Z,13.21
2022-12-23T15:29:52.684Z,13.19
2022-12-23T15:32:02.941Z,13.19
2022-12-23T15:34:17.263Z,13.18
2022-12-23T15:36:35.830Z,13.16
2022-12-23T15:38:44.829Z,13.15
2022-12-23T15:41:01.831Z,13.13
2022-12-23T15:43:21.005Z,13.08
2022-12-23T15:45:39.558Z,13.07
2022-12-23T15:47:45.981Z,13.06
2022-12-23T15:49:51.457Z,13.05
2022-12-23T15:52:13.765Z,13.02
2022-12-23T15:54:35.211Z,12.99
2022-12-23T15:56:48.696Z,12.99
2022-12-23T15:58:55.186Z,12.98
2022-12-23T16:01:03.438Z,12.97
2022-12-23T16:03:15.848Z,12.97
2022-12-23T16:05:32.605Z,12.89
2022-12-23T16:07:41.148Z,12.92
2022-12-23T16:09:49.693Z,12.92
2022-12-23T16:11:59.632Z,12.95
2022-12-23T16:14:27.792Z,12.95
2022-12-23T16:16:40.160Z,12.92
2022-12-23T16:18:47.852Z,12.91
2022-12-23T16:20:57.785Z,12.89
2022-12-23T16:23:06.141Z,12.86
2022-12-23T16:25:24.913Z,12.86
2022-12-23T16:27:40.593Z,12.84
2022-12-23T16:29:48.682Z,12.86
2022-12-23T16:32:01.794Z,12.85
2022-12-23T16:34:10.642Z,12.84
2022-12-23T16:36:34.483Z,12.84
2022-12-23T16:38:40.003Z,12.81
2022-12-23T16:40:50.893Z,12.81
2022-12-23T16:58:45.873Z,12.69
2022-12-23T18:01:28.765Z,12.84
2022-12-23T18:03:34.298Z,12.89
2022-12-23T18:05:40.171Z,12.96
2022-12-23T18:07:45.634Z,13.01
2022-12-23T18:09:51.690Z,13.06
2022-12-23T18:11:57.754Z,13.10
2022-12-23T18:14:05.704Z,13.16
2022-12-23T18:16:15.647Z,13.20
2022-12-23T18:18:37.691Z,13.24
2022-12-23T18:20:54.363Z,13.28
2022-12-23T18:23:05.224Z,13.32
2022-12-23T18:25:18.901Z,13.34
2022-12-23T18:27:26.546Z,13.38
2022-12-23T18:29:31.935Z,13.38
2022-12-23T18:31:38.803Z,13.44
2022-12-23T18:33:47.435Z,13.48
2022-12-23T18:35:56.825Z,13.50
2022-12-23T18:38:03.151Z,13.54
2022-12-23T18:40:10.141Z,13.56
2022-12-23T18:42:17.754Z,13.59
2022-12-23T18:44:24.611Z,13.60
2022-12-23T18:46:29.985Z,13.61
2022-12-23T18:48:35.339Z,13.63
2022-12-23T18:50:46.852Z,13.65
2022-12-23T18:52:52.921Z,13.64
2022-12-23T18:54:58.293Z,13.66
2022-12-23T18:57:04.979Z,13.68
2022-12-23T18:59:22.747Z,13.66
2022-12-23T19:01:32.686Z,13.69
2022-12-23T19:03:38.085Z,13.70
2022-12-23T19:05:46.353Z,13.69
2022-12-23T19:14:33.270Z,13.70
2022-12-23T19:17:06.061Z,13.67
2022-12-23T19:19:12.251Z,13.70
2022-12-23T19:21:21.530Z,13.71
2022-12-23T19:23:27.256Z,13.72
2022-12-23T19:25:32.581Z,13.73
2022-12-23T19:27:38.952Z,13.76
2022-12-23T19:29:44.420Z,13.77
2022-12-23T19:31:49.769Z,13.80
2022-12-23T19:33:55.434Z,13.82
2022-12-23T19:36:00.935Z,13.85
2022-12-23T19:38:09.262Z,13.86
2022-12-23T19:40:15.461Z,13.87
2022-12-23T19:42:21.143Z,13.88
2022-12-23T19:44:27.964Z,13.89
2022-12-23T19:46:34.052Z,13.89
2022-12-23T19:48:41.522Z,13.89
2022-12-23T19:50:47.498Z,13.88
2022-12-23T19:53:00.030Z,13.89
2022-12-23T19:55:10.900Z,13.87
2022-12-23T19:57:16.478Z,13.87
2022-12-23T19:59:22.828Z,13.89
2022-12-23T20:01:30.758Z,13.87
2022-12-23T20:03:37.072Z,13.88
2022-12-23T20:05:43.359Z,13.87
2022-12-23T20:07:49.048Z,13.90
2022-12-23T20:09:55.143Z,13.88
2022-12-23T20:12:04.202Z,13.88
2022-12-23T20:14:11.359Z,13.89
2022-12-23T20:16:17.519Z,13.88
2022-12-23T20:18:25.540Z,13.88
2022-12-23T20:20:31.153Z,13.88
2022-12-23T20:22:36.663Z,13.89
2022-12-23T20:24:41.937Z,13.90
2022-12-23T20:26:47.912Z,13.90
2022-12-23T20:28:55.899Z,13.90
2022-12-23T20:31:11.000Z,13.88
2022-12-23T20:33:16.534Z,13.91
2022-12-23T20:35:22.158Z,13.91
2022-12-23T20:37:27.550Z,13.92
2022-12-23T20:39:33.254Z,13.93
2022-12-23T20:41:38.952Z,13.90
2022-12-23T20:43:56.944Z,13.83
2022-12-23T20:46:17.872Z,13.68
2022-12-23T20:48:26.883Z,13.61
2022-12-23T20:50:40.120Z,13.58
2022-12-23T20:52:56.241Z,13.52
2022-12-23T20:55:16.708Z,13.51
2022-12-23T20:57:24.978Z,13.48
2022-12-23T20:59:30.774Z,13.46
2022-12-23T21:01:41.772Z,13.43
2022-12-23T21:03:47.160Z,13.42
2022-12-23T21:05:52.924Z,13.41
2022-12-23T21:07:58.834Z,13.39
2022-12-23T21:10:04.425Z,13.38
2022-12-23T21:12:12.554Z,13.36
2022-12-23T21:14:20.206Z,13.36
2022-12-23T21:16:28.682Z,13.38
2022-12-23T21:18:39.449Z,13.40
2022-12-23T21:20:47.787Z,13.40
2022-12-23T21:22:55.479Z,13.41
2022-12-23T21:25:01.413Z,13.44
2022-12-23T21:27:09.654Z,13.46
2022-12-23T21:29:16.320Z,13.49
2022-12-23T21:31:25.522Z,13.50
2022-12-23T21:33:39.306Z,13.51
2022-12-23T21:35:44.918Z,13.50
2022-12-23T21:37:50.738Z,13.50
2022-12-23T21:39:58.965Z,13.52
2022-12-23T21:42:06.206Z,13.53
2022-12-23T21:44:13.832Z,13.55
2022-12-23T21:46:25.514Z,13.56
2022-12-23T21:48:38.652Z,13.57
2022-12-23T21:50:44.398Z,13.57
2022-12-23T21:52:49.733Z,13.54
2022-12-23T21:54:55.389Z,13.59
2022-12-23T21:57:01.131Z,13.59
2022-12-23T21:59:17.166Z,13.59
2022-12-23T22:01:24.082Z,13.57
2022-12-23T22:03:31.022Z,13.58
2022-12-23T22:05:39.347Z,13.59
2022-12-23T22:07:44.988Z,13.60
2022-12-23T22:09:50.663Z,13.60
2022-12-23T22:11:56.420Z,13.61
2022-12-23T22:14:04.023Z,13.62
2022-12-23T22:16:13.637Z,13.63
2022-12-23T22:18:19.320Z,13.63
2022-12-23T22:24:19.997Z,13.59
2022-12-23T22:33:11.122Z,13.51
2022-12-23T22:35:16.597Z,13.53
2022-12-23T22:37:22.465Z,13.54
2022-12-23T22:39:27.868Z,13.54
2022-12-23T22:41:34.560Z,13.53
2022-12-23T22:43:40.649Z,13.50
2022-12-23T22:45:46.336Z,13.45
2022-12-23T22:47:51.825Z,13.46
2022-12-23T22:50:00.198Z,13.46
2022-12-23T22:52:05.421Z,13.49
2022-12-23T22:54:11.120Z,13.49
2022-12-23T22:56:19.587Z,13.48
2022-12-23T22:58:25.231Z,13.47
2022-12-23T23:00:30.533Z,13.46
2022-12-23T23:02:35.918Z,13.49
2022-12-23T23:04:41.512Z,13.48
2022-12-23T23:06:49.821Z,13.48
2022-12-23T23:08:55.502Z,13.50
2022-12-23T23:11:03.509Z,13.50
2022-12-23T23:13:08.917Z,13.50
2022-12-23T23:15:14.927Z,13.50
2022-12-23T23:17:20.475Z,13.51
2022-12-23T23:19:25.797Z,13.51
2022-12-23T23:21:31.466Z,13.53
2022-12-23T23:23:39.595Z,13.53
2022-12-23T23:25:45.838Z,13.52
2022-12-23T23:27:51.712Z,13.51
2022-12-23T23:29:57.051Z,13.50
2022-12-23T23:32:02.663Z,13.51
2022-12-23T23:34:08.105Z,13.49
2022-12-23T23:36:13.957Z,13.51
2022-12-23T23:38:19.218Z,13.50
2022-12-23T23:40:27.787Z,13.50
2022-12-23T23:42:33.377Z,13.51
2022-12-23T23:44:38.704Z,13.53
2022-12-23T23:46:44.160Z,13.53
2022-12-23T23:48:49.617Z,13.53
2022-12-23T23:50:54.940Z,13.53
2022-12-23T23:53:00.340Z,13.52
2022-12-23T23:55:05.815Z,13.49
2022-12-23T23:57:16.613Z,13.43
2022-12-23T23:59:21.995Z,13.49
